createdAt,value
2017-09-14T00:01:59.831Z,14.40
2017-09-14T00:04:27.300Z,14.40
2017-09-14T00:06:55.216Z,14.40
2017-09-14T00:09:22.556Z,14.30
2017-09-14T00:11:50.828Z,14.30
2017-09-14T00:14:19.978Z,14.30
2017-09-14T00:16:48.335Z,14.30
2017-09-14T00:19:14.799Z,14.30
2017-09-14T00:21:41.976Z,14.40
2017-09-14T00:24:08.335Z,14.40
2017-09-14T00:26:36.049Z,14.30
2017-09-14T00:29:02.992Z,14.20
2017-09-14T00:31:29.384Z,14.30
2017-09-14T00:33:56.784Z,14.30
2017-09-14T00:36:24.895Z,14.30
2017-09-14T00:38:52.344Z,14.20
2017-09-14T00:41:19.456Z,14.20
2017-09-14T00:43:47.896Z,14.30
2017-09-14T00:46:15.051Z,14.30
2017-09-14T00:48:41.855Z,14.30
2017-09-14T00:51:09.977Z,14.20
2017-09-14T00:53:37.234Z,14.20
2017-09-14T00:56:04.490Z,14.20
2017-09-14T00:58:31.415Z,14.10
2017-09-14T01:00:58.744Z,14.10
2017-09-14T01:03:26.532Z,14.20
2017-09-14T01:05:53.789Z,14.20
2017-09-14T01:08:20.332Z,14.20
2017-09-14T01:10:47.668Z,14.20
2017-09-14T01:13:15.788Z,14.10
2017-09-14T01:15:43.064Z,14.10
2017-09-14T01:18:10.260Z,14.10
2017-09-14T01:20:37.482Z,14.10
2017-09-14T01:23:03.890Z,14.10
2017-09-14T01:25:30.352Z,14.00
2017-09-14T01:27:57.408Z,14.10
2017-09-14T01:30:23.932Z,14.10
2017-09-14T01:32:50.911Z,14.00
2017-09-14T01:35:18.152Z,13.90
2017-09-14T01:37:45.512Z,13.90
2017-09-14T01:40:12.679Z,13.90
2017-09-14T01:42:39.824Z,13.90
2017-09-14T01:45:07.068Z,13.80
2017-09-14T01:47:34.226Z,13.90
2017-09-14T01:50:01.378Z,13.90
2017-09-14T01:52:28.546Z,13.90
2017-09-14T01:54:56.040Z,13.90
2017-09-14T01:57:23.064Z,13.90
2017-09-14T01:59:49.423Z,13.90
2017-09-14T02:02:16.949Z,13.90
2017-09-14T02:04:44.400Z,13.90
2017-09-14T02:07:11.887Z,14.10
2017-09-14T02:09:39.004Z,14.00
2017-09-14T02:12:06.090Z,14.00
2017-09-14T02:14:33.285Z,14.10
2017-09-14T02:17:00.391Z,14.00
2017-09-14T02:19:27.691Z,14.00
2017-09-14T02:21:54.056Z,14.00
2017-09-14T02:24:21.175Z,14.00
2017-09-14T02:26:47.584Z,14.00
2017-09-14T02:29:14.709Z,14.00
2017-09-14T02:31:41.912Z,14.10
2017-09-14T02:34:08.907Z,14.10
2017-09-14T02:36:37.738Z,13.90
2017-09-14T02:39:04.821Z,14.00
2017-09-14T02:41:32.671Z,13.90
2017-09-14T02:43:59.840Z,13.90
2017-09-14T02:46:26.208Z,13.90
2017-09-14T02:48:53.407Z,13.90
2017-09-14T02:51:20.691Z,13.90
2017-09-14T02:53:48.119Z,13.80
2017-09-14T02:56:15.005Z,13.90
2017-09-14T02:58:42.028Z,13.90
2017-09-14T03:01:08.432Z,14.00
2017-09-14T03:03:35.623Z,14.00
2017-09-14T03:06:02.776Z,14.00
2017-09-14T03:08:29.789Z,13.90
2017-09-14T03:10:57.855Z,13.90
2017-09-14T03:13:25.060Z,13.90
2017-09-14T03:15:51.439Z,13.90
2017-09-14T03:18:18.937Z,13.90
2017-09-14T03:20:45.399Z,13.90
2017-09-14T03:23:11.840Z,13.90
2017-09-14T03:25:38.339Z,13.90
2017-09-14T03:28:06.360Z,13.90
2017-09-14T03:30:32.721Z,13.90
2017-09-14T03:32:59.096Z,13.90
2017-09-14T03:35:26.284Z,13.90
2017-09-14T03:37:54.154Z,13.80
2017-09-14T03:40:20.511Z,13.80
2017-09-14T03:42:48.583Z,13.80
2017-09-14T03:45:15.085Z,13.70
2017-09-14T03:47:42.591Z,13.70
2017-09-14T03:50:09.777Z,13.70
2017-09-14T03:52:36.888Z,13.70
2017-09-14T03:55:04.331Z,13.70
2017-09-14T03:57:31.407Z,13.60
2017-09-14T03:59:58.808Z,13.70
2017-09-14T04:02:26.524Z,13.70
2017-09-14T04:04:53.732Z,13.70
2017-09-14T04:07:21.671Z,13.70
2017-09-14T04:09:48.072Z,13.70
2017-09-14T04:12:15.159Z,13.70
2017-09-14T04:14:42.248Z,13.80
2017-09-14T04:17:09.234Z,13.80
2017-09-14T04:19:36.405Z,13.80
2017-09-14T04:22:02.767Z,13.80
2017-09-14T04:24:30.098Z,13.90
2017-09-14T04:26:57.437Z,13.80
2017-09-14T04:29:24.596Z,13.80
2017-09-14T04:31:51.033Z,13.70
2017-09-14T04:34:17.391Z,13.70
2017-09-14T04:36:44.772Z,13.70
2017-09-14T04:39:11.128Z,13.70
2017-09-14T04:41:38.189Z,13.70
2017-09-14T04:44:04.564Z,13.70
2017-09-14T04:46:31.000Z,13.80
2017-09-14T04:48:57.978Z,13.70
2017-09-14T04:51:25.138Z,13.70
2017-09-14T04:53:52.228Z,13.70
2017-09-14T04:56:20.149Z,13.70
2017-09-14T04:58:47.381Z,13.70
2017-09-14T05:01:14.648Z,13.60
2017-09-14T05:03:41.077Z,13.70
2017-09-14T05:06:07.456Z,13.60
2017-09-14T05:08:33.894Z,13.60
2017-09-14T05:11:00.260Z,13.60
2017-09-14T05:13:26.858Z,13.60
2017-09-14T05:15:53.296Z,13.60
2017-09-14T05:18:19.662Z,13.60
2017-09-14T05:20:46.032Z,13.60
2017-09-14T05:23:14.148Z,13.70
2017-09-14T05:25:40.685Z,13.70
2017-09-14T05:28:07.698Z,13.70
2017-09-14T05:30:35.937Z,13.70
2017-09-14T05:33:02.459Z,13.70
2017-09-14T05:35:28.901Z,13.70
2017-09-14T05:37:57.181Z,13.70
2017-09-14T05:40:23.722Z,13.80
2017-09-14T05:42:51.364Z,13.80
2017-09-14T05:45:18.863Z,13.90
2017-09-14T05:47:45.914Z,13.90
2017-09-14T05:50:12.341Z,14.00
2017-09-14T05:52:39.312Z,14.00
2017-09-14T05:55:06.265Z,14.10
2017-09-14T05:57:33.624Z,14.10
2017-09-14T06:00:01.346Z,14.20
2017-09-14T06:02:27.810Z,14.40
2017-09-14T06:04:55.082Z,14.50
2017-09-14T06:07:22.447Z,14.60
2017-09-14T06:09:48.804Z,14.70
2017-09-14T06:12:15.255Z,14.80
2017-09-14T06:14:41.692Z,14.80
2017-09-14T06:17:08.233Z,14.90
2017-09-14T06:19:35.543Z,15.00
2017-09-14T06:22:02.085Z,15.10
2017-09-14T06:24:29.752Z,15.10
2017-09-14T06:26:56.901Z,15.20
2017-09-14T06:29:24.067Z,15.20
2017-09-14T06:31:50.504Z,15.20
2017-09-14T06:34:16.937Z,15.40
2017-09-14T06:36:44.002Z,15.60
2017-09-14T06:39:11.335Z,15.60
2017-09-14T06:41:38.635Z,15.60
2017-09-14T06:44:07.671Z,15.60
2017-09-14T06:46:34.800Z,15.70
2017-09-14T06:49:01.277Z,15.70
2017-09-14T06:51:28.972Z,15.80
2017-09-14T06:53:55.343Z,15.80
2017-09-14T06:56:23.704Z,15.80
2017-09-14T06:58:50.752Z,15.90
2017-09-14T07:01:17.253Z,16.00
2017-09-14T07:03:43.674Z,16.10
2017-09-14T07:06:10.130Z,16.10
2017-09-14T07:08:37.349Z,16.30
2017-09-14T07:11:04.570Z,16.30
2017-09-14T07:13:31.656Z,16.30
2017-09-14T07:15:58.054Z,16.30
2017-09-14T07:18:25.423Z,16.40
2017-09-14T07:20:52.680Z,16.50
2017-09-14T07:23:19.959Z,16.60
2017-09-14T07:25:46.480Z,16.60
2017-09-14T07:28:14.921Z,16.70
2017-09-14T07:30:42.041Z,16.80
2017-09-14T07:33:08.555Z,16.80
2017-09-14T07:35:34.992Z,16.90
2017-09-14T07:38:02.151Z,16.90
2017-09-14T07:40:29.329Z,17.00
2017-09-14T07:42:56.380Z,17.00
2017-09-14T07:45:23.796Z,17.10
2017-09-14T07:47:50.213Z,17.20
2017-09-14T07:50:17.400Z,17.30
2017-09-14T07:52:44.856Z,17.30
2017-09-14T07:55:12.119Z,17.30
2017-09-14T07:57:38.503Z,17.40
2017-09-14T08:00:04.924Z,17.40
2017-09-14T08:02:31.360Z,17.50
2017-09-14T08:04:57.750Z,17.50
2017-09-14T08:07:25.040Z,17.60
2017-09-14T08:09:51.512Z,17.60
2017-09-14T08:12:18.641Z,17.60
2017-09-14T08:14:46.304Z,17.70
2017-09-14T08:17:12.727Z,17.80
2017-09-14T08:19:41.041Z,17.80
2017-09-14T08:22:07.568Z,17.90
2017-09-14T08:24:34.327Z,18.00
2017-09-14T08:27:01.731Z,18.00
2017-09-14T08:29:29.526Z,18.20
2017-09-14T08:31:55.980Z,18.20
2017-09-14T08:34:22.479Z,18.30
2017-09-14T08:36:50.996Z,18.40
2017-09-14T08:39:18.446Z,18.40
2017-09-14T08:41:45.500Z,18.50
2017-09-14T08:44:12.605Z,18.70
2017-09-14T08:46:38.948Z,18.70
2017-09-14T08:49:05.452Z,18.80
2017-09-14T08:51:32.512Z,18.90
2017-09-14T08:53:59.734Z,19.00
2017-09-14T08:56:26.874Z,19.10
2017-09-14T08:58:53.259Z,19.20
2017-09-14T09:01:19.660Z,19.20
2017-09-14T09:03:46.730Z,19.30
2017-09-14T09:06:13.674Z,19.30
2017-09-14T09:08:40.500Z,19.30
2017-09-14T09:11:06.852Z,19.40
2017-09-14T09:13:34.574Z,19.60
2017-09-14T09:16:00.908Z,19.60
2017-09-14T09:18:27.704Z,19.70
2017-09-14T09:20:56.012Z,19.80
2017-09-14T09:23:23.230Z,19.80
2017-09-14T09:25:51.244Z,20.10
2017-09-14T09:28:18.418Z,20.00
2017-09-14T09:30:44.784Z,20.20
2017-09-14T09:33:11.163Z,20.30
2017-09-14T09:35:38.274Z,20.30
2017-09-14T09:38:05.385Z,20.30
2017-09-14T09:40:31.795Z,20.40
2017-09-14T09:42:59.896Z,20.60
2017-09-14T09:45:26.918Z,20.60
2017-09-14T09:47:54.930Z,20.80
2017-09-14T09:50:21.266Z,20.80
2017-09-14T09:52:48.674Z,20.90
2017-09-14T09:55:16.464Z,21.00
2017-09-14T09:57:43.632Z,21.10
2017-09-14T10:00:10.610Z,21.00
2017-09-14T10:02:37.065Z,21.10
2017-09-14T10:05:03.481Z,21.20
2017-09-14T10:07:29.985Z,21.30
2017-09-14T10:09:57.832Z,21.50
2017-09-14T10:12:25.172Z,21.40
2017-09-14T10:14:52.516Z,21.30
2017-09-14T10:17:19.295Z,21.40
2017-09-14T10:19:47.239Z,21.50
2017-09-14T10:22:13.626Z,21.60
2017-09-14T10:24:40.892Z,21.50
2017-09-14T10:27:08.070Z,21.70
2017-09-14T10:29:35.777Z,21.60
2017-09-14T10:32:02.200Z,21.80
2017-09-14T10:34:29.355Z,21.90
2017-09-14T10:36:56.533Z,22.00
2017-09-14T10:39:23.841Z,22.10
2017-09-14T10:41:50.852Z,22.10
2017-09-14T10:44:17.942Z,22.30
2017-09-14T10:46:44.973Z,22.20
2017-09-14T10:49:12.937Z,22.30
2017-09-14T10:51:40.061Z,22.40
2017-09-14T10:54:06.442Z,22.30
2017-09-14T10:56:33.625Z,22.50
2017-09-14T10:59:00.688Z,22.50
2017-09-14T11:01:27.120Z,22.50
2017-09-14T11:03:53.557Z,22.50
2017-09-14T11:06:19.986Z,22.60
2017-09-14T11:08:47.868Z,22.20
2017-09-14T11:11:14.221Z,21.80
2017-09-14T11:13:41.852Z,21.50
2017-09-14T11:16:09.341Z,20.90
2017-09-14T11:18:35.785Z,20.90
2017-09-14T11:21:02.194Z,20.60
2017-09-14T11:23:29.528Z,20.50
2017-09-14T11:25:56.096Z,20.60
2017-09-14T11:28:22.513Z,20.50
2017-09-14T11:30:49.701Z,20.50
2017-09-14T11:33:16.100Z,20.50
2017-09-14T11:35:44.269Z,19.70
2017-09-14T11:38:21.424Z,19.70
2017-09-14T11:40:48.699Z,18.80
2017-09-14T11:43:16.535Z,18.70
2017-09-14T11:45:42.920Z,18.20
2017-09-14T11:48:10.116Z,17.70
2017-09-14T11:50:36.680Z,17.60
2017-09-14T11:53:03.157Z,17.30
2017-09-14T11:55:29.749Z,17.30
2017-09-14T11:57:56.820Z,16.80
2017-09-14T12:00:23.280Z,16.30
2017-09-14T12:02:49.728Z,16.20
2017-09-14T12:05:16.248Z,15.90
2017-09-14T12:07:42.791Z,15.70
2017-09-14T12:10:09.922Z,15.30
2017-09-14T12:12:36.464Z,15.30
2017-09-14T12:15:03.714Z,15.00
2017-09-14T12:17:30.573Z,15.00
2017-09-14T12:19:56.985Z,14.90
2017-09-14T12:22:24.096Z,14.60
2017-09-14T12:24:51.189Z,14.80
2017-09-14T12:27:17.740Z,14.60
2017-09-14T12:29:44.924Z,14.60
2017-09-14T12:32:12.105Z,14.50
2017-09-14T12:34:39.173Z,14.30
2017-09-14T12:37:06.589Z,14.10
2017-09-14T12:39:33.731Z,13.80
2017-09-14T12:42:00.891Z,13.70
2017-09-14T12:44:27.240Z,13.50
2017-09-14T12:46:55.007Z,13.20
2017-09-14T12:49:22.262Z,12.90
2017-09-14T12:51:49.825Z,12.70
2017-09-14T12:54:16.720Z,12.50
2017-09-14T12:56:45.876Z,12.30
2017-09-14T12:59:13.232Z,12.20
2017-09-14T13:01:40.594Z,12.00
2017-09-14T13:04:07.315Z,11.80
2017-09-14T13:06:33.989Z,11.90
2017-09-14T13:09:02.065Z,11.80
2017-09-14T13:11:28.404Z,11.70
2017-09-14T13:13:54.840Z,11.70
2017-09-14T13:16:21.893Z,11.70
2017-09-14T13:18:48.266Z,11.60
2017-09-14T13:21:15.686Z,11.40
2017-09-14T13:23:42.258Z,11.50
2017-09-14T13:26:08.653Z,11.50
2017-09-14T13:28:35.066Z,11.40
2017-09-14T13:31:02.165Z,11.30
2017-09-14T13:33:28.608Z,11.30
2017-09-14T13:35:55.627Z,11.20
2017-09-14T13:38:23.004Z,11.20
2017-09-14T13:40:49.411Z,11.00
2017-09-14T13:43:16.827Z,11.00
2017-09-14T13:45:43.208Z,11.00
2017-09-14T13:48:10.443Z,10.90
2017-09-14T13:50:37.544Z,10.90
2017-09-14T13:53:03.918Z,11.00
2017-09-14T13:55:31.038Z,11.00
2017-09-14T13:57:57.534Z,11.00
2017-09-14T14:00:24.621Z,11.10
2017-09-14T14:02:52.313Z,11.10
2017-09-14T14:05:19.683Z,11.10
2017-09-14T14:07:46.019Z,11.10
2017-09-14T14:10:12.389Z,11.10
2017-09-14T14:12:38.821Z,11.10
2017-09-14T14:15:05.212Z,11.10
2017-09-14T14:17:31.699Z,11.10
2017-09-14T14:19:58.736Z,11.10
2017-09-14T14:22:25.356Z,11.00
2017-09-14T14:24:51.996Z,11.00
2017-09-14T14:27:18.747Z,11.00
2017-09-14T14:29:48.152Z,11.10
2017-09-14T14:32:14.691Z,11.10
2017-09-14T14:34:41.845Z,11.10
2017-09-14T14:37:09.302Z,11.10
2017-09-14T14:39:36.774Z,11.20
2017-09-14T14:42:04.230Z,11.20
2017-09-14T14:44:30.768Z,11.20
2017-09-14T14:46:57.314Z,11.30
2017-09-14T14:49:24.879Z,11.30
2017-09-14T14:51:51.419Z,11.30
2017-09-14T14:54:18.164Z,11.30
2017-09-14T14:56:44.798Z,11.40
2017-09-14T14:59:12.068Z,11.40
2017-09-14T15:01:39.415Z,11.30
2017-09-14T15:04:06.884Z,11.30
2017-09-14T15:06:33.426Z,11.30
2017-09-14T15:08:59.972Z,11.30
2017-09-14T15:11:27.945Z,11.30
2017-09-14T15:13:54.480Z,11.40
2017-09-14T15:16:21.949Z,11.30
2017-09-14T15:18:49.306Z,11.30
2017-09-14T15:21:16.052Z,11.30
2017-09-14T15:23:43.860Z,11.30
2017-09-14T15:26:10.460Z,11.40
2017-09-14T15:28:37.719Z,11.40
2017-09-14T15:31:06.002Z,11.40
2017-09-14T15:33:33.565Z,11.40
2017-09-14T15:36:00.925Z,11.30
2017-09-14T15:38:34.831Z,11.30
2017-09-14T15:41:09.133Z,11.30
2017-09-14T15:43:43.471Z,11.30
2017-09-14T15:46:11.243Z,11.30
2017-09-14T15:48:45.200Z,11.20
2017-09-14T15:51:18.752Z,11.00
2017-09-14T15:53:46.112Z,11.00
2017-09-14T15:56:13.574Z,10.90
2017-09-14T15:58:40.114Z,10.90
2017-09-14T16:01:07.475Z,10.80
2017-09-14T16:03:34.123Z,10.70
2017-09-14T16:06:00.666Z,10.60
2017-09-14T16:08:28.473Z,10.60
2017-09-14T16:10:55.686Z,10.50
2017-09-14T16:13:22.840Z,10.50
2017-09-14T16:15:51.078Z,10.30
2017-09-14T16:18:19.198Z,10.30
2017-09-14T16:20:45.731Z,10.30
2017-09-14T16:23:12.385Z,10.30
2017-09-14T16:25:39.027Z,10.30
2017-09-14T16:28:06.590Z,10.30
2017-09-14T16:30:34.258Z,10.30
2017-09-14T16:33:01.907Z,10.40
2017-09-14T16:35:30.863Z,10.40
2017-09-14T16:37:59.098Z,10.30
2017-09-14T16:40:26.458Z,10.30
2017-09-14T16:42:53.924Z,10.30
2017-09-14T16:45:20.566Z,10.40
2017-09-14T16:47:47.931Z,10.40
2017-09-14T16:50:14.680Z,10.20
2017-09-14T16:52:41.310Z,10.20
2017-09-14T16:55:08.777Z,10.20
2017-09-14T16:57:37.159Z,10.20
2017-09-14T17:00:04.924Z,10.20
2017-09-14T17:02:31.465Z,10.30
2017-09-14T17:04:59.134Z,10.30
2017-09-14T17:07:25.676Z,10.30
2017-09-14T17:09:52.317Z,10.30
2017-09-14T17:12:18.948Z,10.30
2017-09-14T17:14:46.512Z,10.30
2017-09-14T17:17:13.787Z,10.40
2017-09-14T17:19:40.325Z,10.30
2017-09-14T17:22:06.867Z,10.30
2017-09-14T17:24:34.635Z,10.20
2017-09-14T17:27:01.167Z,10.20
2017-09-14T17:29:28.742Z,10.50
2017-09-14T17:31:55.272Z,10.50
2017-09-14T17:34:21.824Z,10.60
2017-09-14T17:36:49.491Z,10.60
2017-09-14T17:39:16.744Z,10.50
2017-09-14T17:41:48.452Z,10.60
2017-09-14T17:44:16.193Z,10.60
2017-09-14T17:46:42.935Z,10.60
2017-09-14T17:49:10.484Z,10.70
2017-09-14T17:51:37.946Z,11.00
2017-09-14T17:54:05.718Z,10.90
2017-09-14T17:56:33.483Z,10.80
2017-09-14T17:59:00.026Z,10.70
2017-09-14T18:01:26.670Z,10.70
2017-09-14T18:03:53.296Z,10.70
2017-09-14T18:06:19.856Z,10.60
2017-09-14T18:08:47.420Z,10.50
2017-09-14T18:11:14.976Z,10.50
2017-09-14T18:13:42.239Z,10.50
2017-09-14T18:16:09.292Z,10.40
2017-09-14T18:18:35.835Z,10.20
2017-09-14T18:21:03.640Z,10.20
2017-09-14T18:23:31.475Z,10.20
2017-09-14T18:25:59.755Z,10.20
2017-09-14T18:28:27.040Z,10.20
2017-09-14T18:30:53.656Z,10.10
2017-09-14T18:33:20.741Z,10.10
2017-09-14T18:35:48.891Z,10.10
2017-09-14T18:38:16.348Z,10.10
2017-09-14T18:40:43.612Z,10.10
2017-09-14T18:43:11.069Z,10.10
2017-09-14T18:45:37.712Z,10.20
2017-09-14T18:48:04.356Z,10.20
2017-09-14T18:50:31.113Z,10.20
2017-09-14T18:52:58.358Z,10.10
2017-09-14T18:55:25.617Z,10.10
2017-09-14T18:57:53.590Z,10.10
2017-09-14T19:00:20.131Z,10.10
2017-09-14T19:02:46.667Z,10.10
2017-09-14T19:05:13.421Z,10.10
2017-09-14T19:07:40.063Z,10.10
2017-09-14T19:10:06.807Z,10.20
2017-09-14T19:12:33.452Z,10.20
2017-09-14T19:14:59.988Z,10.20
2017-09-14T19:17:26.516Z,10.20
2017-09-14T19:19:53.176Z,10.30
2017-09-14T19:22:20.128Z,10.30
2017-09-14T19:24:47.691Z,10.30
2017-09-14T19:27:14.436Z,10.30
2017-09-14T19:29:42.388Z,10.30
2017-09-14T19:32:11.108Z,10.20
2017-09-14T19:34:37.744Z,10.20
2017-09-14T19:37:05.303Z,10.10
2017-09-14T19:39:32.776Z,10.00
2017-09-14T19:42:00.641Z,10.00
2017-09-14T19:44:27.886Z,10.10
2017-09-14T19:46:54.950Z,10.10
2017-09-14T19:49:22.319Z,10.10
2017-09-14T19:51:50.182Z,10.10
2017-09-14T19:54:17.542Z,10.10
2017-09-14T19:56:44.083Z,10.10
2017-09-14T19:59:10.625Z,10.10
2017-09-14T20:01:37.251Z,10.10
2017-09-14T20:04:04.625Z,10.10
2017-09-14T20:06:31.885Z,10.10
2017-09-14T20:08:58.532Z,10.20
2017-09-14T20:11:25.603Z,10.10
2017-09-14T20:13:52.232Z,10.10
2017-09-14T20:16:18.852Z,10.00
2017-09-14T20:18:46.019Z,9.90
2017-09-14T20:21:14.660Z,9.90
2017-09-14T20:23:42.995Z,10.00
2017-09-14T20:26:10.248Z,9.90
2017-09-14T20:28:38.225Z,9.90
2017-09-14T20:31:05.483Z,9.90
2017-09-14T20:33:33.151Z,9.90
2017-09-14T20:36:00.600Z,9.80
2017-09-14T20:38:29.092Z,9.80
2017-09-14T20:40:55.743Z,9.70
2017-09-14T20:43:23.094Z,9.70
2017-09-14T20:45:49.620Z,9.60
2017-09-14T20:48:16.182Z,9.60
2017-09-14T20:50:43.747Z,9.50
2017-09-14T20:53:10.737Z,9.40
2017-09-14T20:55:38.043Z,9.30
2017-09-14T20:58:04.598Z,9.30
2017-09-14T21:00:31.140Z,9.30
2017-09-14T21:02:58.392Z,9.30
2017-09-14T21:05:24.940Z,9.20
2017-09-14T21:07:51.477Z,9.20
2017-09-14T21:10:18.123Z,9.20
2017-09-14T21:12:46.318Z,9.20
2017-09-14T21:15:13.651Z,9.10
2017-09-14T21:17:40.199Z,9.00
2017-09-14T21:20:07.971Z,9.00
2017-09-14T21:22:34.511Z,9.00
2017-09-14T21:25:01.156Z,8.90
2017-09-14T21:27:29.184Z,8.80
2017-09-14T21:29:58.328Z,8.80
2017-09-14T21:32:25.072Z,8.80
2017-09-14T21:34:51.931Z,8.70
2017-09-14T21:37:20.820Z,8.70
2017-09-14T21:39:48.382Z,8.60
2017-09-14T21:42:15.739Z,8.60
2017-09-14T21:44:43.526Z,8.60
2017-09-14T21:47:10.975Z,8.60
2017-09-14T21:49:38.816Z,8.50
2017-09-14T21:52:06.099Z,8.50
2017-09-14T21:54:33.564Z,8.40
2017-09-14T21:57:00.091Z,8.40
2017-09-14T21:59:27.709Z,8.40
2017-09-14T22:01:54.928Z,8.30
2017-09-14T22:04:22.204Z,8.30
2017-09-14T22:06:48.694Z,8.20
2017-09-14T22:09:15.252Z,8.20
2017-09-14T22:11:41.809Z,8.10
2017-09-14T22:14:08.452Z,8.10
2017-09-14T22:16:36.019Z,8.10
2017-09-14T22:19:03.889Z,8.00
2017-09-14T22:21:31.145Z,8.00
2017-09-14T22:23:57.686Z,7.90
2017-09-14T22:26:24.227Z,7.90
2017-09-14T22:28:52.096Z,7.90
2017-09-14T22:31:18.641Z,7.90
2017-09-14T22:33:45.180Z,7.80
2017-09-14T22:36:12.638Z,7.80
2017-09-14T22:38:40.004Z,7.70
2017-09-14T22:41:06.544Z,7.70
2017-09-14T22:43:34.926Z,7.60
2017-09-14T22:46:03.523Z,7.60
2017-09-14T22:48:30.159Z,7.60
2017-09-14T22:50:56.675Z,7.50
2017-09-14T22:53:23.855Z,7.50
2017-09-14T22:55:50.905Z,7.50
2017-09-14T22:58:18.348Z,7.40
2017-09-14T23:00:45.812Z,7.40
2017-09-14T23:03:12.374Z,7.30
2017-09-14T23:05:39.630Z,7.30
2017-09-14T23:08:06.708Z,7.20
2017-09-14T23:10:33.224Z,7.20
2017-09-14T23:12:59.969Z,7.20
2017-09-14T23:15:27.432Z,7.20
2017-09-14T23:17:54.077Z,7.20
2017-09-14T23:20:20.611Z,7.20
2017-09-14T23:22:47.263Z,7.20
2017-09-14T23:25:13.800Z,7.30
2017-09-14T23:27:41.262Z,7.20
2017-09-14T23:30:07.798Z,7.20
2017-09-14T23:32:35.164Z,7.10
2017-09-14T23:35:02.217Z,7.10
2017-09-14T23:37:29.979Z,7.10
2017-09-14T23:39:57.551Z,7.10
2017-09-14T23:42:24.911Z,7.20
2017-09-14T23:44:52.059Z,7.20
2017-09-14T23:47:18.604Z,7.20
2017-09-14T23:49:45.147Z,7.10
2017-09-14T23:52:11.684Z,7.10
2017-09-14T23:54:38.233Z,7.20
2017-09-14T23:57:05.774Z,7.20
2017-09-14T23:59:33.664Z,7.30
